sensor_id;sensor_type;location;lat;lon;timestamp;P1;durP1;ratioP1;P2;durP2;ratioP2
21860;SDS011;11095;48.066;8.540;2023-08-20T00:00:35;8.88;;;7.10;;
21860;SDS011;11095;48.066;8.540;2023-08-20T00:03:10;7.95;;;7.25;;
21860;SDS011;11095;48.066;8.540;2023-08-20T00:05:37;7.45;;;6.78;;
21860;SDS011;11095;48.066;8.540;2023-08-20T00:08:03;8.57;;;7.43;;
21860;SDS011;11095;48.066;8.540;2023-08-20T00:10:30;7.55;;;6.85;;
21860;SDS011;11095;48.066;8.540;2023-08-20T00:12:55;7.75;;;6.95;;
21860;SDS011;11095;48.066;8.540;2023-08-20T00:15:21;8.23;;;7.40;;
21860;SDS011;11095;48.066;8.540;2023-08-20T00:17:51;7.93;;;7.10;;
21860;SDS011;11095;48.066;8.540;2023-08-20T00:20:17;10.20;;;8.10;;
21860;SDS011;11095;48.066;8.540;2023-08-20T00:22:43;9.25;;;7.80;;
21860;SDS011;11095;48.066;8.540;2023-08-20T00:25:10;8.70;;;7.85;;
21860;SDS011;11095;48.066;8.540;2023-08-20T00:27:38;8.95;;;7.65;;
21860;SDS011;11095;48.066;8.540;2023-08-20T00:30:04;10.85;;;7.85;;
21860;SDS011;11095;48.066;8.540;2023-08-20T00:32:30;9.02;;;7.75;;
21860;SDS011;11095;48.066;8.540;2023-08-20T00:34:55;8.10;;;7.30;;
21860;SDS011;11095;48.066;8.540;2023-08-20T00:37:21;10.40;;;7.75;;
21860;SDS011;11095;48.066;8.540;2023-08-20T00:39:47;9.25;;;7.75;;
21860;SDS011;11095;48.066;8.540;2023-08-20T00:42:12;10.27;;;9.27;;
21860;SDS011;11095;48.066;8.540;2023-08-20T00:44:41;11.93;;;8.43;;
21860;SDS011;11095;48.066;8.540;2023-08-20T00:47:09;8.90;;;7.45;;
21860;SDS011;11095;48.066;8.540;2023-08-20T00:49:35;8.00;;;7.30;;
21860;SDS011;11095;48.066;8.540;2023-08-20T00:52:01;8.10;;;7.30;;
21860;SDS011;11095;48.066;8.540;2023-08-20T00:54:28;8.23;;;7.20;;
21860;SDS011;11095;48.066;8.540;2023-08-20T00:56:54;8.90;;;7.53;;
21860;SDS011;11095;48.066;8.540;2023-08-20T00:59:20;8.50;;;7.60;;
21860;SDS011;11095;48.066;8.540;2023-08-20T01:01:46;8.52;;;7.65;;
21860;SDS011;11095;48.066;8.540;2023-08-20T01:04:12;7.80;;;7.10;;
21860;SDS011;11095;48.066;8.540;2023-08-20T01:11:56;9.30;;;8.18;;
21860;SDS011;11095;48.066;8.540;2023-08-20T01:14:24;9.75;;;8.75;;
21860;SDS011;11095;48.066;8.540;2023-08-20T01:16:50;10.52;;;8.32;;
21860;SDS011;11095;48.066;8.540;2023-08-20T01:19:19;9.27;;;8.32;;
21860;SDS011;11095;48.066;8.540;2023-08-20T01:27:52;9.00;;;7.97;;
21860;SDS011;11095;48.066;8.540;2023-08-20T01:30:33;9.38;;;8.45;;
21860;SDS011;11095;48.066;8.540;2023-08-20T01:33:00;10.57;;;8.90;;
21860;SDS011;11095;48.066;8.540;2023-08-20T01:35:26;9.57;;;7.97;;
21860;SDS011;11095;48.066;8.540;2023-08-20T01:37:52;8.38;;;7.57;;
21860;SDS011;11095;48.066;8.540;2023-08-20T01:40:17;8.55;;;7.70;;
21860;SDS011;11095;48.066;8.540;2023-08-20T01:42:43;8.25;;;7.28;;
21860;SDS011;11095;48.066;8.540;2023-08-20T01:45:09;8.05;;;7.25;;
21860;SDS011;11095;48.066;8.540;2023-08-20T01:47:35;7.93;;;7.20;;
21860;SDS011;11095;48.066;8.540;2023-08-20T01:50:01;8.32;;;7.50;;
21860;SDS011;11095;48.066;8.540;2023-08-20T01:52:27;8.30;;;7.50;;
21860;SDS011;11095;48.066;8.540;2023-08-20T01:54:54;9.68;;;8.63;;
21860;SDS011;11095;48.066;8.540;2023-08-20T01:57:20;9.50;;;8.25;;
21860;SDS011;11095;48.066;8.540;2023-08-20T01:59:46;8.40;;;7.68;;
21860;SDS011;11095;48.066;8.540;2023-08-20T02:02:12;8.88;;;7.97;;
21860;SDS011;11095;48.066;8.540;2023-08-20T02:04:38;8.70;;;7.78;;
21860;SDS011;11095;48.066;8.540;2023-08-20T02:07:03;8.80;;;7.93;;
21860;SDS011;11095;48.066;8.540;2023-08-20T02:09:29;8.90;;;8.10;;
21860;SDS011;11095;48.066;8.540;2023-08-20T02:11:55;8.30;;;7.60;;
21860;SDS011;11095;48.066;8.540;2023-08-20T02:14:20;8.95;;;7.90;;
21860;SDS011;11095;48.066;8.540;2023-08-20T02:16:46;10.15;;;8.00;;
21860;SDS011;11095;48.066;8.540;2023-08-20T02:19:12;8.88;;;7.97;;
21860;SDS011;11095;48.066;8.540;2023-08-20T02:21:39;8.93;;;8.07;;
21860;SDS011;11095;48.066;8.540;2023-08-20T02:24:04;8.75;;;7.80;;
21860;SDS011;11095;48.066;8.540;2023-08-20T02:26:30;9.07;;;8.07;;
21860;SDS011;11095;48.066;8.540;2023-08-20T02:28:56;8.73;;;7.90;;
21860;SDS011;11095;48.066;8.540;2023-08-20T02:31:21;8.93;;;8.02;;
21860;SDS011;11095;48.066;8.540;2023-08-20T02:33:47;8.70;;;7.90;;
21860;SDS011;11095;48.066;8.540;2023-08-20T02:36:12;8.55;;;7.68;;
21860;SDS011;11095;48.066;8.540;2023-08-20T02:38:38;8.35;;;7.55;;
21860;SDS011;11095;48.066;8.540;2023-08-20T02:41:04;8.52;;;7.72;;
21860;SDS011;11095;48.066;8.540;2023-08-20T02:43:29;8.90;;;8.00;;
21860;SDS011;11095;48.066;8.540;2023-08-20T02:45:55;8.73;;;7.85;;
21860;SDS011;11095;48.066;8.540;2023-08-20T02:48:20;9.13;;;8.15;;
21860;SDS011;11095;48.066;8.540;2023-08-20T02:50:51;8.50;;;7.70;;
21860;SDS011;11095;48.066;8.540;2023-08-20T02:53:18;9.10;;;7.82;;
21860;SDS011;11095;48.066;8.540;2023-08-20T02:55:43;8.88;;;7.95;;
21860;SDS011;11095;48.066;8.540;2023-08-20T02:58:09;9.63;;;8.60;;
21860;SDS011;11095;48.066;8.540;2023-08-20T03:00:35;9.57;;;8.40;;
21860;SDS011;11095;48.066;8.540;2023-08-20T03:03:01;9.88;;;8.65;;
21860;SDS011;11095;48.066;8.540;2023-08-20T03:05:30;12.02;;;8.68;;
21860;SDS011;11095;48.066;8.540;2023-08-20T03:07:56;9.38;;;7.90;;
21860;SDS011;11095;48.066;8.540;2023-08-20T03:10:22;9.77;;;8.75;;
21860;SDS011;11095;48.066;8.540;2023-08-20T03:12:48;8.55;;;7.75;;
21860;SDS011;11095;48.066;8.540;2023-08-20T03:15:13;9.32;;;8.30;;
21860;SDS011;11095;48.066;8.540;2023-08-20T03:17:39;9.13;;;8.23;;
21860;SDS011;11095;48.066;8.540;2023-08-20T03:20:05;9.23;;;8.32;;
21860;SDS011;11095;48.066;8.540;2023-08-20T03:22:32;9.13;;;8.27;;
21860;SDS011;11095;48.066;8.540;2023-08-20T03:24:58;9.43;;;8.48;;
21860;SDS011;11095;48.066;8.540;2023-08-20T03:27:23;10.82;;;9.73;;
21860;SDS011;11095;48.066;8.540;2023-08-20T03:29:49;9.77;;;8.80;;
21860;SDS011;11095;48.066;8.540;2023-08-20T03:32:15;9.95;;;8.43;;
21860;SDS011;11095;48.066;8.540;2023-08-20T03:34:40;9.48;;;8.48;;
21860;SDS011;11095;48.066;8.540;2023-08-20T03:37:06;9.90;;;8.40;;
21860;SDS011;11095;48.066;8.540;2023-08-20T03:39:31;12.43;;;9.88;;
21860;SDS011;11095;48.066;8.540;2023-08-20T03:41:57;13.82;;;9.73;;
21860;SDS011;11095;48.066;8.540;2023-08-20T03:44:23;9.98;;;8.98;;
21860;SDS011;11095;48.066;8.540;2023-08-20T03:46:48;9.55;;;8.55;;
21860;SDS011;11095;48.066;8.540;2023-08-20T03:49:15;9.45;;;8.45;;
21860;SDS011;11095;48.066;8.540;2023-08-20T03:51:40;9.15;;;8.25;;
21860;SDS011;11095;48.066;8.540;2023-08-20T03:54:07;10.43;;;9.18;;
21860;SDS011;11095;48.066;8.540;2023-08-20T03:56:33;9.75;;;8.75;;
21860;SDS011;11095;48.066;8.540;2023-08-20T03:58:59;9.07;;;8.18;;
21860;SDS011;11095;48.066;8.540;2023-08-20T04:01:25;9.63;;;8.75;;
21860;SDS011;11095;48.066;8.540;2023-08-20T04:03:50;9.20;;;8.40;;
21860;SDS011;11095;48.066;8.540;2023-08-20T04:06:16;9.25;;;8.35;;
21860;SDS011;11095;48.066;8.540;2023-08-20T04:08:41;9.68;;;8.80;;
21860;SDS011;11095;48.066;8.540;2023-08-20T04:11:07;9.27;;;8.38;;
21860;SDS011;11095;48.066;8.540;2023-08-20T04:13:33;9.45;;;8.55;;
21860;SDS011;11095;48.066;8.540;2023-08-20T04:15:59;9.32;;;8.50;;
21860;SDS011;11095;48.066;8.540;2023-08-20T04:18:24;9.85;;;8.60;;
21860;SDS011;11095;48.066;8.540;2023-08-20T04:20:50;10.15;;;9.15;;
21860;SDS011;11095;48.066;8.540;2023-08-20T04:23:17;9.77;;;8.77;;
21860;SDS011;11095;48.066;8.540;2023-08-20T04:25:43;10.15;;;9.18;;
21860;SDS011;11095;48.066;8.540;2023-08-20T04:28:10;10.35;;;9.35;;
21860;SDS011;11095;48.066;8.540;2023-08-20T04:30:36;10.93;;;9.40;;
21860;SDS011;11095;48.066;8.540;2023-08-20T04:33:01;11.45;;;8.90;;
21860;SDS011;11095;48.066;8.540;2023-08-20T04:35:27;11.05;;;9.95;;
21860;SDS011;11095;48.066;8.540;2023-08-20T04:37:53;10.35;;;9.35;;
21860;SDS011;11095;48.066;8.540;2023-08-20T04:40:18;10.38;;;9.38;;
21860;SDS011;11095;48.066;8.540;2023-08-20T04:42:44;10.50;;;9.45;;
21860;SDS011;11095;48.066;8.540;2023-08-20T04:45:09;10.40;;;9.43;;
21860;SDS011;11095;48.066;8.540;2023-08-20T04:47:36;11.52;;;9.15;;
21860;SDS011;11095;48.066;8.540;2023-08-20T04:50:02;9.80;;;8.90;;
21860;SDS011;11095;48.066;8.540;2023-08-20T04:52:28;9.93;;;8.93;;
21860;SDS011;11095;48.066;8.540;2023-08-20T04:54:53;9.50;;;8.60;;
21860;SDS011;11095;48.066;8.540;2023-08-20T04:57:19;9.70;;;7.78;;
21860;SDS011;11095;48.066;8.540;2023-08-20T04:59:44;8.20;;;6.90;;
21860;SDS011;11095;48.066;8.540;2023-08-20T05:02:13;7.70;;;6.88;;
21860;SDS011;11095;48.066;8.540;2023-08-20T05:04:39;7.10;;;6.50;;
21860;SDS011;11095;48.066;8.540;2023-08-20T05:07:05;7.20;;;6.50;;
21860;SDS011;11095;48.066;8.540;2023-08-20T05:09:30;6.60;;;5.97;;
21860;SDS011;11095;48.066;8.540;2023-08-20T05:11:56;6.60;;;5.85;;
21860;SDS011;11095;48.066;8.540;2023-08-20T05:14:22;6.70;;;6.10;;
21860;SDS011;11095;48.066;8.540;2023-08-20T05:16:47;6.00;;;5.50;;
21860;SDS011;11095;48.066;8.540;2023-08-20T05:19:13;7.97;;;5.95;;
21860;SDS011;11095;48.066;8.540;2023-08-20T05:21:38;6.30;;;5.63;;
21860;SDS011;11095;48.066;8.540;2023-08-20T05:24:04;6.20;;;5.25;;
21860;SDS011;11095;48.066;8.540;2023-08-20T05:26:30;6.03;;;5.53;;
21860;SDS011;11095;48.066;8.540;2023-08-20T05:28:55;6.10;;;5.10;;
21860;SDS011;11095;48.066;8.540;2023-08-20T05:31:21;5.95;;;4.78;;
21860;SDS011;11095;48.066;8.540;2023-08-20T05:33:46;5.15;;;4.65;;
21860;SDS011;11095;48.066;8.540;2023-08-20T05:36:13;5.10;;;4.60;;
21860;SDS011;11095;48.066;8.540;2023-08-20T05:38:39;5.07;;;4.57;;
21860;SDS011;11095;48.066;8.540;2023-08-20T05:41:07;5.80;;;4.57;;
21860;SDS011;11095;48.066;8.540;2023-08-20T05:43:32;6.10;;;5.05;;
21860;SDS011;11095;48.066;8.540;2023-08-20T05:45:58;6.30;;;5.35;;
21860;SDS011;11095;48.066;8.540;2023-08-20T05:48:24;5.50;;;5.00;;
21860;SDS011;11095;48.066;8.540;2023-08-20T05:50:49;6.85;;;5.60;;
21860;SDS011;11095;48.066;8.540;2023-08-20T05:53:15;5.97;;;5.45;;
21860;SDS011;11095;48.066;8.540;2023-08-20T05:55:40;6.97;;;6.28;;
21860;SDS011;11095;48.066;8.540;2023-08-20T05:58:06;6.50;;;5.82;;
21860;SDS011;11095;48.066;8.540;2023-08-20T06:00:32;6.18;;;5.60;;
21860;SDS011;11095;48.066;8.540;2023-08-20T06:02:57;7.18;;;6.30;;
21860;SDS011;11095;48.066;8.540;2023-08-20T06:05:23;8.13;;;6.20;;
21860;SDS011;11095;48.066;8.540;2023-08-20T06:07:48;7.20;;;6.50;;
21860;SDS011;11095;48.066;8.540;2023-08-20T06:10:15;6.90;;;6.20;;
21860;SDS011;11095;48.066;8.540;2023-08-20T06:12:41;7.60;;;6.85;;
21860;SDS011;11095;48.066;8.540;2023-08-20T06:15:07;6.57;;;5.88;;
21860;SDS011;11095;48.066;8.540;2023-08-20T06:17:33;7.97;;;6.35;;
21860;SDS011;11095;48.066;8.540;2023-08-20T06:19:58;6.40;;;5.88;;
21860;SDS011;11095;48.066;8.540;2023-08-20T06:22:24;7.22;;;6.53;;
21860;SDS011;11095;48.066;8.540;2023-08-20T06:24:49;9.25;;;6.88;;
21860;SDS011;11095;48.066;8.540;2023-08-20T06:27:15;8.30;;;6.20;;
21860;SDS011;11095;48.066;8.540;2023-08-20T06:29:41;6.40;;;5.80;;
21860;SDS011;11095;48.066;8.540;2023-08-20T06:32:06;6.32;;;5.72;;
21860;SDS011;11095;48.066;8.540;2023-08-20T06:34:33;8.07;;;6.40;;
21860;SDS011;11095;48.066;8.540;2023-08-20T06:36:59;8.65;;;6.78;;
21860;SDS011;11095;48.066;8.540;2023-08-20T06:39:25;6.80;;;6.10;;
21860;SDS011;11095;48.066;8.540;2023-08-20T06:41:50;6.40;;;5.90;;
21860;SDS011;11095;48.066;8.540;2023-08-20T06:44:16;7.45;;;5.78;;
21860;SDS011;11095;48.066;8.540;2023-08-20T06:46:42;7.07;;;5.63;;
21860;SDS011;11095;48.066;8.540;2023-08-20T06:49:07;5.72;;;5.22;;
21860;SDS011;11095;48.066;8.540;2023-08-20T06:51:33;5.88;;;5.28;;
21860;SDS011;11095;48.066;8.540;2023-08-20T06:53:58;7.38;;;4.60;;
21860;SDS011;11095;48.066;8.540;2023-08-20T06:56:24;7.57;;;4.93;;
21860;SDS011;11095;48.066;8.540;2023-08-20T06:58:50;4.78;;;4.32;;
21860;SDS011;11095;48.066;8.540;2023-08-20T07:01:15;5.60;;;4.53;;
21860;SDS011;11095;48.066;8.540;2023-08-20T07:03:41;5.20;;;4.40;;
21860;SDS011;11095;48.066;8.540;2023-08-20T07:06:08;5.15;;;4.63;;
21860;SDS011;11095;48.066;8.540;2023-08-20T07:08:35;4.70;;;4.30;;
21860;SDS011;11095;48.066;8.540;2023-08-20T07:11:01;5.18;;;3.97;;
21860;SDS011;11095;48.066;8.540;2023-08-20T07:13:27;5.28;;;4.03;;
21860;SDS011;11095;48.066;8.540;2023-08-20T07:15:53;4.97;;;4.20;;
21860;SDS011;11095;48.066;8.540;2023-08-20T07:18:18;4.63;;;3.85;;
21860;SDS011;11095;48.066;8.540;2023-08-20T07:20:44;4.65;;;3.90;;
21860;SDS011;11095;48.066;8.540;2023-08-20T07:23:11;5.25;;;4.60;;
21860;SDS011;11095;48.066;8.540;2023-08-20T07:25:40;5.15;;;4.00;;
21860;SDS011;11095;48.066;8.540;2023-08-20T07:28:06;6.38;;;4.05;;
21860;SDS011;11095;48.066;8.540;2023-08-20T07:30:33;5.03;;;4.05;;
21860;SDS011;11095;48.066;8.540;2023-08-20T07:33:00;4.35;;;3.70;;
21860;SDS011;11095;48.066;8.540;2023-08-20T07:35:26;4.10;;;3.70;;
21860;SDS011;11095;48.066;8.540;2023-08-20T07:37:51;4.57;;;3.70;;
21860;SDS011;11095;48.066;8.540;2023-08-20T07:40:17;4.07;;;3.60;;
21860;SDS011;11095;48.066;8.540;2023-08-20T07:42:43;4.80;;;4.00;;
21860;SDS011;11095;48.066;8.540;2023-08-20T07:45:09;7.43;;;3.85;;
21860;SDS011;11095;48.066;8.540;2023-08-20T07:47:35;4.50;;;3.90;;
21860;SDS011;11095;48.066;8.540;2023-08-20T07:50:01;4.40;;;3.60;;
21860;SDS011;11095;48.066;8.540;2023-08-20T07:52:27;4.78;;;3.78;;
21860;SDS011;11095;48.066;8.540;2023-08-20T07:54:53;5.85;;;3.70;;
21860;SDS011;11095;48.066;8.540;2023-08-20T07:57:18;5.13;;;4.18;;
21860;SDS011;11095;48.066;8.540;2023-08-20T07:59:44;5.18;;;3.47;;
21860;SDS011;11095;48.066;8.540;2023-08-20T08:02:10;5.78;;;3.40;;
21860;SDS011;11095;48.066;8.540;2023-08-20T08:04:35;4.95;;;3.30;;
21860;SDS011;11095;48.066;8.540;2023-08-20T08:07:01;4.80;;;3.40;;
21860;SDS011;11095;48.066;8.540;2023-08-20T08:09:31;4.68;;;3.65;;
21860;SDS011;11095;48.066;8.540;2023-08-20T08:11:57;6.63;;;3.60;;
21860;SDS011;11095;48.066;8.540;2023-08-20T08:14:24;4.55;;;3.58;;
21860;SDS011;11095;48.066;8.540;2023-08-20T08:16:49;4.78;;;3.60;;
21860;SDS011;11095;48.066;8.540;2023-08-20T08:19:15;4.85;;;3.28;;
21860;SDS011;11095;48.066;8.540;2023-08-20T08:21:42;3.88;;;3.17;;
21860;SDS011;11095;48.066;8.540;2023-08-20T08:24:08;5.80;;;3.35;;
21860;SDS011;11095;48.066;8.540;2023-08-20T08:26:34;4.32;;;3.47;;
21860;SDS011;11095;48.066;8.540;2023-08-20T08:29:01;4.60;;;3.70;;
21860;SDS011;11095;48.066;8.540;2023-08-20T08:31:27;4.85;;;3.60;;
21860;SDS011;11095;48.066;8.540;2023-08-20T08:33:53;5.63;;;4.07;;
21860;SDS011;11095;48.066;8.540;2023-08-20T08:36:18;6.40;;;3.75;;
21860;SDS011;11095;48.066;8.540;2023-08-20T08:38:44;6.15;;;4.30;;
21860;SDS011;11095;48.066;8.540;2023-08-20T08:41:11;6.72;;;4.10;;
21860;SDS011;11095;48.066;8.540;2023-08-20T08:43:37;6.75;;;4.07;;
21860;SDS011;11095;48.066;8.540;2023-08-20T08:46:07;5.45;;;4.40;;
21860;SDS011;11095;48.066;8.540;2023-08-20T08:48:43;6.25;;;4.63;;
21860;SDS011;11095;48.066;8.540;2023-08-20T08:51:10;6.60;;;4.53;;
21860;SDS011;11095;48.066;8.540;2023-08-20T08:53:40;5.70;;;4.65;;
21860;SDS011;11095;48.066;8.540;2023-08-20T08:56:07;9.88;;;4.80;;
21860;SDS011;11095;48.066;8.540;2023-08-20T08:58:33;6.10;;;4.85;;
21860;SDS011;11095;48.066;8.540;2023-08-20T09:00:59;6.38;;;4.43;;
21860;SDS011;11095;48.066;8.540;2023-08-20T09:03:26;5.07;;;3.80;;
21860;SDS011;11095;48.066;8.540;2023-08-20T09:05:56;5.57;;;4.57;;
21860;SDS011;11095;48.066;8.540;2023-08-20T09:08:28;6.65;;;4.80;;
21860;SDS011;11095;48.066;8.540;2023-08-20T09:10:55;5.07;;;4.57;;
21860;SDS011;11095;48.066;8.540;2023-08-20T09:13:26;5.93;;;4.50;;
21860;SDS011;11095;48.066;8.540;2023-08-20T09:16:05;4.82;;;3.97;;
21860;SDS011;11095;48.066;8.540;2023-08-20T09:18:32;8.13;;;4.70;;
21860;SDS011;11095;48.066;8.540;2023-08-20T09:21:02;6.32;;;4.53;;
21860;SDS011;11095;48.066;8.540;2023-08-20T09:23:32;6.57;;;4.43;;
21860;SDS011;11095;48.066;8.540;2023-08-20T09:25:58;7.40;;;4.53;;
21860;SDS011;11095;48.066;8.540;2023-08-20T09:28:27;5.18;;;4.55;;
21860;SDS011;11095;48.066;8.540;2023-08-20T09:30:56;5.18;;;4.63;;
21860;SDS011;11095;48.066;8.540;2023-08-20T09:33:28;6.72;;;4.88;;
21860;SDS011;11095;48.066;8.540;2023-08-20T09:35:54;7.03;;;4.90;;
21860;SDS011;11095;48.066;8.540;2023-08-20T09:38:20;7.75;;;6.00;;
21860;SDS011;11095;48.066;8.540;2023-08-20T09:40:52;7.78;;;6.20;;
21860;SDS011;11095;48.066;8.540;2023-08-20T09:43:21;9.80;;;6.05;;
21860;SDS011;11095;48.066;8.540;2023-08-20T09:45:53;8.00;;;5.82;;
21860;SDS011;11095;48.066;8.540;2023-08-20T09:48:21;8.93;;;7.00;;
21860;SDS011;11095;48.066;8.540;2023-08-20T09:50:49;6.30;;;5.60;;
21860;SDS011;11095;48.066;8.540;2023-08-20T09:53:22;7.47;;;6.28;;
21860;SDS011;11095;48.066;8.540;2023-08-20T09:55:56;10.23;;;6.63;;
21860;SDS011;11095;48.066;8.540;2023-08-20T09:58:28;9.32;;;6.60;;
21860;SDS011;11095;48.066;8.540;2023-08-20T10:00:55;7.70;;;5.57;;
21860;SDS011;11095;48.066;8.540;2023-08-20T10:03:22;9.10;;;6.57;;
21860;SDS011;11095;48.066;8.540;2023-08-20T10:05:50;9.10;;;6.70;;
21860;SDS011;11095;48.066;8.540;2023-08-20T10:08:16;7.80;;;6.22;;
21860;SDS011;11095;48.066;8.540;2023-08-20T10:10:42;12.02;;;6.28;;
21860;SDS011;11095;48.066;8.540;2023-08-20T10:13:08;9.98;;;6.85;;
21860;SDS011;11095;48.066;8.540;2023-08-20T10:15:33;12.02;;;6.90;;
21860;SDS011;11095;48.066;8.540;2023-08-20T10:18:01;8.68;;;6.55;;
21860;SDS011;11095;48.066;8.540;2023-08-20T10:20:31;8.23;;;6.60;;
21860;SDS011;11095;48.066;8.540;2023-08-20T10:23:00;10.55;;;6.68;;
21860;SDS011;11095;48.066;8.540;2023-08-20T10:25:29;7.95;;;6.78;;
21860;SDS011;11095;48.066;8.540;2023-08-20T10:28:10;9.57;;;6.25;;
21860;SDS011;11095;48.066;8.540;2023-08-20T10:33:38;7.93;;;6.57;;
21860;SDS011;11095;48.066;8.540;2023-08-20T10:36:15;7.57;;;6.68;;
21860;SDS011;11095;48.066;8.540;2023-08-20T10:38:44;9.00;;;6.63;;
21860;SDS011;11095;48.066;8.540;2023-08-20T10:41:10;8.43;;;6.30;;
21860;SDS011;11095;48.066;8.540;2023-08-20T10:43:37;7.68;;;5.90;;
21860;SDS011;11095;48.066;8.540;2023-08-20T10:48:55;6.93;;;5.75;;
21860;SDS011;11095;48.066;8.540;2023-08-20T10:51:29;6.47;;;5.78;;
21860;SDS011;11095;48.066;8.540;2023-08-20T10:56:38;6.30;;;4.75;;
21860;SDS011;11095;48.066;8.540;2023-08-20T10:59:21;5.20;;;4.70;;
21860;SDS011;11095;48.066;8.540;2023-08-20T11:01:48;7.10;;;5.40;;
21860;SDS011;11095;48.066;8.540;2023-08-20T11:04:15;8.23;;;5.55;;
21860;SDS011;11095;48.066;8.540;2023-08-20T11:06:42;7.93;;;5.40;;
21860;SDS011;11095;48.066;8.540;2023-08-20T11:09:09;9.20;;;5.88;;
21860;SDS011;11095;48.066;8.540;2023-08-20T11:11:36;10.93;;;5.57;;
21860;SDS011;11095;48.066;8.540;2023-08-20T11:14:04;9.25;;;5.43;;
21860;SDS011;11095;48.066;8.540;2023-08-20T11:16:38;6.90;;;4.80;;
21860;SDS011;11095;48.066;8.540;2023-08-20T11:19:04;11.80;;;5.35;;
21860;SDS011;11095;48.066;8.540;2023-08-20T11:21:34;7.05;;;5.00;;
21860;SDS011;11095;48.066;8.540;2023-08-20T11:24:03;6.07;;;4.60;;
21860;SDS011;11095;48.066;8.540;2023-08-20T11:26:29;7.18;;;4.75;;
21860;SDS011;11095;48.066;8.540;2023-08-20T11:28:55;9.07;;;4.68;;
21860;SDS011;11095;48.066;8.540;2023-08-20T11:31:21;6.93;;;4.60;;
21860;SDS011;11095;48.066;8.540;2023-08-20T11:33:47;8.55;;;4.40;;
21860;SDS011;11095;48.066;8.540;2023-08-20T11:36:15;5.28;;;4.32;;
21860;SDS011;11095;48.066;8.540;2023-08-20T11:38:51;7.07;;;4.82;;
21860;SDS011;11095;48.066;8.540;2023-08-20T11:41:20;6.70;;;4.45;;
21860;SDS011;11095;48.066;8.540;2023-08-20T11:43:46;6.97;;;4.60;;
21860;SDS011;11095;48.066;8.540;2023-08-20T11:46:19;9.13;;;4.63;;
21860;SDS011;11095;48.066;8.540;2023-08-20T11:51:51;8.15;;;4.55;;
21860;SDS011;11095;48.066;8.540;2023-08-20T11:54:17;7.68;;;4.70;;
21860;SDS011;11095;48.066;8.540;2023-08-20T11:59:10;7.93;;;4.40;;
21860;SDS011;11095;48.066;8.540;2023-08-20T12:01:37;6.20;;;4.47;;
21860;SDS011;11095;48.066;8.540;2023-08-20T12:04:03;6.63;;;4.60;;
21860;SDS011;11095;48.066;8.540;2023-08-20T12:06:30;6.75;;;4.80;;
21860;SDS011;11095;48.066;8.540;2023-08-20T12:08:59;6.93;;;4.40;;
21860;SDS011;11095;48.066;8.540;2023-08-20T12:11:26;8.07;;;4.45;;
21860;SDS011;11095;48.066;8.540;2023-08-20T12:13:52;5.22;;;4.15;;
21860;SDS011;11095;48.066;8.540;2023-08-20T12:16:18;7.18;;;4.30;;
21860;SDS011;11095;48.066;8.540;2023-08-20T12:18:45;6.93;;;4.15;;
21860;SDS011;11095;48.066;8.540;2023-08-20T12:21:11;7.18;;;4.50;;
21860;SDS011;11095;48.066;8.540;2023-08-20T12:23:37;6.38;;;4.03;;
21860;SDS011;11095;48.066;8.540;2023-08-20T12:26:02;7.05;;;4.53;;
21860;SDS011;11095;48.066;8.540;2023-08-20T12:28:28;6.68;;;3.88;;
21860;SDS011;11095;48.066;8.540;2023-08-20T12:30:54;12.82;;;4.63;;
21860;SDS011;11095;48.066;8.540;2023-08-20T12:33:19;8.18;;;4.90;;
21860;SDS011;11095;48.066;8.540;2023-08-20T12:35:46;6.78;;;4.47;;
21860;SDS011;11095;48.066;8.540;2023-08-20T12:38:11;8.27;;;4.40;;
21860;SDS011;11095;48.066;8.540;2023-08-20T12:40:37;7.63;;;4.55;;
21860;SDS011;11095;48.066;8.540;2023-08-20T12:43:03;5.85;;;4.32;;
21860;SDS011;11095;48.066;8.540;2023-08-20T12:45:28;7.72;;;4.47;;
21860;SDS011;11095;48.066;8.540;2023-08-20T12:47:55;8.15;;;4.70;;
21860;SDS011;11095;48.066;8.540;2023-08-20T12:50:20;5.25;;;4.60;;
21860;SDS011;11095;48.066;8.540;2023-08-20T12:52:46;7.30;;;4.20;;
21860;SDS011;11095;48.066;8.540;2023-08-20T12:55:14;6.65;;;4.32;;
21860;SDS011;11095;48.066;8.540;2023-08-20T12:57:51;7.72;;;4.53;;
21860;SDS011;11095;48.066;8.540;2023-08-20T13:00:18;4.95;;;3.83;;
21860;SDS011;11095;48.066;8.540;2023-08-20T13:02:44;4.60;;;4.13;;
21860;SDS011;11095;48.066;8.540;2023-08-20T13:05:10;6.32;;;4.00;;
21860;SDS011;11095;48.066;8.540;2023-08-20T13:07:36;4.65;;;3.53;;
21860;SDS011;11095;48.066;8.540;2023-08-20T13:10:02;8.45;;;4.25;;
21860;SDS011;11095;48.066;8.540;2023-08-20T13:12:28;7.45;;;4.10;;
21860;SDS011;11095;48.066;8.540;2023-08-20T13:14:57;8.10;;;4.00;;
21860;SDS011;11095;48.066;8.540;2023-08-20T13:17:23;4.60;;;3.88;;
21860;SDS011;11095;48.066;8.540;2023-08-20T13:19:49;7.05;;;3.85;;
21860;SDS011;11095;48.066;8.540;2023-08-20T13:22:15;4.30;;;3.55;;
21860;SDS011;11095;48.066;8.540;2023-08-20T13:24:40;6.32;;;3.90;;
21860;SDS011;11095;48.066;8.540;2023-08-20T13:27:06;5.07;;;3.58;;
21860;SDS011;11095;48.066;8.540;2023-08-20T13:29:31;4.97;;;3.60;;
21860;SDS011;11095;48.066;8.540;2023-08-20T13:31:57;6.00;;;3.72;;
21860;SDS011;11095;48.066;8.540;2023-08-20T13:34:22;5.03;;;3.35;;
21860;SDS011;11095;48.066;8.540;2023-08-20T13:36:48;6.18;;;3.75;;
21860;SDS011;11095;48.066;8.540;2023-08-20T13:39:14;5.65;;;3.90;;
21860;SDS011;11095;48.066;8.540;2023-08-20T13:41:40;4.57;;;3.63;;
21860;SDS011;11095;48.066;8.540;2023-08-20T13:44:06;9.15;;;4.18;;
21860;SDS011;11095;48.066;8.540;2023-08-20T13:46:33;4.88;;;3.55;;
21860;SDS011;11095;48.066;8.540;2023-08-20T13:48:59;8.15;;;4.10;;
21860;SDS011;11095;48.066;8.540;2023-08-20T13:51:24;8.73;;;4.00;;
21860;SDS011;11095;48.066;8.540;2023-08-20T13:53:50;6.90;;;3.88;;
21860;SDS011;11095;48.066;8.540;2023-08-20T13:56:16;9.68;;;4.00;;
21860;SDS011;11095;48.066;8.540;2023-08-20T13:58:41;7.75;;;4.15;;
21860;SDS011;11095;48.066;8.540;2023-08-20T14:01:07;8.32;;;4.25;;
21860;SDS011;11095;48.066;8.540;2023-08-20T14:03:32;8.40;;;3.90;;
21860;SDS011;11095;48.066;8.540;2023-08-20T14:05:58;5.90;;;3.85;;
21860;SDS011;11095;48.066;8.540;2023-08-20T14:08:24;4.93;;;3.45;;
21860;SDS011;11095;48.066;8.540;2023-08-20T14:10:49;5.22;;;3.58;;
21860;SDS011;11095;48.066;8.540;2023-08-20T14:13:15;4.20;;;3.40;;
21860;SDS011;11095;48.066;8.540;2023-08-20T14:15:40;4.28;;;3.72;;
21860;SDS011;11095;48.066;8.540;2023-08-20T14:18:06;7.15;;;3.85;;
21860;SDS011;11095;48.066;8.540;2023-08-20T14:20:32;5.07;;;3.90;;
21860;SDS011;11095;48.066;8.540;2023-08-20T14:22:57;5.43;;;3.80;;
21860;SDS011;11095;48.066;8.540;2023-08-20T14:25:23;8.30;;;4.47;;
21860;SDS011;11095;48.066;8.540;2023-08-20T14:27:49;11.18;;;4.80;;
21860;SDS011;11095;48.066;8.540;2023-08-20T14:30:14;6.88;;;4.45;;
21860;SDS011;11095;48.066;8.540;2023-08-20T14:32:40;5.85;;;3.97;;
21860;SDS011;11095;48.066;8.540;2023-08-20T14:35:07;5.50;;;4.07;;
21860;SDS011;11095;48.066;8.540;2023-08-20T14:37:33;7.93;;;4.32;;
21860;SDS011;11095;48.066;8.540;2023-08-20T14:39:59;6.07;;;3.83;;
21860;SDS011;11095;48.066;8.540;2023-08-20T14:42:24;4.63;;;3.92;;
21860;SDS011;11095;48.066;8.540;2023-08-20T14:44:50;6.45;;;4.20;;
21860;SDS011;11095;48.066;8.540;2023-08-20T14:47:15;7.63;;;4.65;;
21860;SDS011;11095;48.066;8.540;2023-08-20T14:49:41;8.48;;;4.65;;
21860;SDS011;11095;48.066;8.540;2023-08-20T14:52:06;9.23;;;4.60;;
21860;SDS011;11095;48.066;8.540;2023-08-20T14:54:32;8.98;;;5.10;;
21860;SDS011;11095;48.066;8.540;2023-08-20T14:56:58;6.75;;;5.10;;
21860;SDS011;11095;48.066;8.540;2023-08-20T14:59:23;11.25;;;5.18;;
21860;SDS011;11095;48.066;8.540;2023-08-20T15:01:49;11.00;;;5.38;;
21860;SDS011;11095;48.066;8.540;2023-08-20T15:04:14;10.77;;;5.38;;
21860;SDS011;11095;48.066;8.540;2023-08-20T15:06:40;9.88;;;4.80;;